This is the latest recevied weather packets stored in our database for station/object K1BES. If no packets are shown the sender has not sent any weather packets the latest 10 day(s).
| Time | Temp. | Humidity | Pressure | Rain* | Wind** | Luminosity | Snow |
|---|---|---|---|---|---|---|---|
| 1778096112 | 28.89° C | 77% | 1018 hPa | 0 mm | - | 853 W/m² | - |
| 1778095809 | 29.44° C | 76% | 1018 hPa | 0 mm | - | 857 W/m² | - |
| 1778095505 | 29.44° C | 75% | 1017.9 hPa | 0 mm | - | 897 W/m² | - |
| 1778095201 | 29.44° C | 75% | 1018.2 hPa | 0 mm | - | 904 W/m² | - |
| 1778094898 | 28.89° C | 75% | 1018.2 hPa | 0 mm | - | 912 W/m² | - |
| 1778094595 | 29.44° C | 76% | 1018.1 hPa | 0 mm | - | 930 W/m² | - |
| 1778094292 | 28.89° C | 75% | 1018.3 hPa | 0 mm | - | 952 W/m² | - |
| 1778093988 | 30° C | 74% | 1018.2 hPa | 0 mm | - | 972 W/m² | - |
| 1778093686 | 30° C | 74% | 1018.5 hPa | 0 mm | - | 965 W/m² | - |
| 1778093382 | 29.44° C | 74% | 1018.5 hPa | 0 mm | - | 992 W/m² | - |
| 1778093079 | 30° C | 72% | 1018.6 hPa | 0 mm | - | 976 W/m² | - |
| 1778092777 | 30° C | 72% | 1018.5 hPa | 0 mm | - | 982 W/m² | - |
| 1778092472 | 30° C | 72% | 1018.5 hPa | 0 mm | - | 1004 W/m² | - |
| 1778092169 | 29.44° C | 74% | 1018.6 hPa | 0 mm | - | 1008 W/m² | - |
| 1778091867 | 29.44° C | 73% | 1018.6 hPa | 0 mm | - | 919 W/m² | - |
| 1778091564 | 29.44° C | 74% | 1018.8 hPa | 0 mm | - | 938 W/m² | - |
| 1778091262 | 28.89° C | 74% | 1018.7 hPa | 0 mm | - | 1007 W/m² | - |
| 1778090958 | 29.44° C | 74% | 1018.8 hPa | 0 mm | - | 1001 W/m² | - |
| 1778090654 | 30.56° C | 70% | 1018.7 hPa | 0 mm | - | 940 W/m² | - |
| 1778090352 | 30° C | 71% | 1018.5 hPa | 0 mm | - | 1024 W/m² | - |
| 1778090048 | 30° C | 73% | 1018.7 hPa | 0 mm | - | 1092 W/m² | - |
| 1778089745 | 29.44° C | 72% | 1018.8 hPa | 0 mm | - | 990 W/m² | - |
| 1778089443 | 30° C | 73% | 1018.9 hPa | 0 mm | - | 1071 W/m² | - |
| 1778089140 | 30° C | 74% | 1018.9 hPa | 0 mm | - | 1060 W/m² | - |
| 1778088836 | 29.44° C | 76% | 1019 hPa | 0 mm | - | 1066 W/m² | - |
* Rain latest hour (hover to see other rain measurements)
** Current wind speed in m/s (hover to see current wind gust speed)